TimeCST,TemperatureF,Dew PointF,Humidity,Sea Level PressureIn,VisibilityMPH,Wind Direction,Wind SpeedMPH,Gust SpeedMPH,PrecipitationIn,Events,Conditions,WindDirDegrees,DateUTC
12:53 AM,51.1,48.0,89,30.29,9.0,Calm,Calm,-,N/A,,Clear,0,2012-11-19 06:53:00
1:53 AM,48.9,46.0,90,30.28,10.0,Calm,Calm,-,N/A,,Clear,0,2012-11-19 07:53:00
2:53 AM,48.9,46.0,90,30.27,10.0,Calm,Calm,-,N/A,,Clear,0,2012-11-19 08:53:00
3:53 AM,48.0,45.0,89,30.25,10.0,Calm,Calm,-,N/A,,Clear,0,2012-11-19 09:53:00
4:53 AM,53.1,45.0,74,30.26,10.0,East,4.6,-,N/A,,Clear,80,2012-11-19 10:53:00
5:53 AM,51.1,45.0,80,30.27,10.0,NE,4.6,-,N/A,,Partly Cloudy,50,2012-11-19 11:53:00
6:53 AM,50.0,46.0,86,30.28,10.0,ENE,3.5,-,N/A,,Scattered Clouds,60,2012-11-19 12:53:00
7:53 AM,59.0,50.0,72,30.29,10.0,ENE,4.6,-,N/A,,Scattered Clouds,60,2012-11-19 13:53:00
8:53 AM,62.1,48.9,62,30.30,10.0,East,4.6,-,N/A,,Scattered Clouds,80,2012-11-19 14:53:00
9:53 AM,66.0,48.9,54,30.30,10.0,Variable,5.8,-,N/A,,Scattered Clouds,0,2012-11-19 15:53:00
10:53 AM,66.9,48.9,52,30.30,10.0,NNE,6.9,-,N/A,,Scattered Clouds,20,2012-11-19 16:53:00
11:53 AM,68.0,48.0,49,30.27,10.0,NE,6.9,-,N/A,,Partly Cloudy,40,2012-11-19 17:53:00
12:53 PM,70.0,46.9,44,30.24,10.0,NNE,8.1,-,N/A,,Clear,30,2012-11-19 18:53:00
1:53 PM,70.0,45.0,41,30.22,10.0,NNE,5.8,-,N/A,,Partly Cloudy,20,2012-11-19 19:53:00
2:53 PM,70.0,46.0,42,30.20,10.0,NNE,5.8,-,N/A,,Scattered Clouds,30,2012-11-19 20:53:00
3:53 PM,69.1,46.0,44,30.19,10.0,NE,4.6,-,N/A,,Scattered Clouds,50,2012-11-19 21:53:00
4:53 PM,66.9,46.0,47,30.19,10.0,Calm,Calm,-,N/A,,Scattered Clouds,0,2012-11-19 22:53:00
5:53 PM,62.1,46.0,56,30.20,10.0,Calm,Calm,-,N/A,,Scattered Clouds,0,2012-11-19 23:53:00
6:53 PM,60.1,46.9,62,30.21,10.0,Calm,Calm,-,N/A,,Scattered Clouds,0,2012-11-20 00:53:00
7:13 PM,59.0,46.4,63,30.20,10.0,Calm,Calm,-,N/A,,Scattered Clouds,0,2012-11-20 01:13:00
7:53 PM,57.9,48.0,70,30.21,10.0,Calm,Calm,-,N/A,,Scattered Clouds,0,2012-11-20 01:53:00
8:53 PM,55.9,48.0,75,30.22,10.0,Calm,Calm,-,N/A,,Partly Cloudy,0,2012-11-20 02:53:00
9:53 PM,55.9,48.0,75,30.21,10.0,Calm,Calm,-,N/A,,Partly Cloudy,0,2012-11-20 03:53:00
10:53 PM,54.0,48.0,80,30.21,10.0,Calm,Calm,-,N/A,,Mostly Cloudy,0,2012-11-20 04:53:00
11:53 PM,54.0,48.9,83,30.19,10.0,Calm,Calm,-,N/A,,Clear,0,2012-11-20 05:53:00